sensor_id;sensor_type;location;lat;lon;timestamp;P1;durP1;ratioP1;P2;durP2;ratioP2
53389;SDS011;39288;42.970;1.524;2023-11-18T00:00:01;10.65;;;5.95;;
53389;SDS011;39288;42.970;1.524;2023-11-18T00:01:03;19.85;;;9.65;;
53389;SDS011;39288;42.970;1.524;2023-11-18T00:02:03;14.27;;;8.37;;
53389;SDS011;39288;42.970;1.524;2023-11-18T00:03:04;15.43;;;7.77;;
53389;SDS011;39288;42.970;1.524;2023-11-18T00:04:05;11.27;;;4.57;;
53389;SDS011;39288;42.970;1.524;2023-11-18T00:05:10;11.30;;;5.35;;
53389;SDS011;39288;42.970;1.524;2023-11-18T00:06:11;12.05;;;6.20;;
53389;SDS011;39288;42.970;1.524;2023-11-18T00:07:11;9.37;;;4.77;;
53389;SDS011;39288;42.970;1.524;2023-11-18T00:08:11;14.27;;;4.60;;
53389;SDS011;39288;42.970;1.524;2023-11-18T00:09:12;8.60;;;3.30;;
53389;SDS011;39288;42.970;1.524;2023-11-18T00:10:15;11.68;;;3.40;;
53389;SDS011;39288;42.970;1.524;2023-11-18T00:11:16;8.57;;;3.30;;
53389;SDS011;39288;42.970;1.524;2023-11-18T00:12:16;8.70;;;2.93;;
53389;SDS011;39288;42.970;1.524;2023-11-18T00:13:16;18.07;;;11.03;;
53389;SDS011;39288;42.970;1.524;2023-11-18T00:14:17;14.07;;;10.07;;
53389;SDS011;39288;42.970;1.524;2023-11-18T00:15:18;16.30;;;10.23;;
53389;SDS011;39288;42.970;1.524;2023-11-18T00:16:20;13.30;;;9.15;;
53389;SDS011;39288;42.970;1.524;2023-11-18T00:17:20;15.60;;;9.37;;
53389;SDS011;39288;42.970;1.524;2023-11-18T00:18:20;14.47;;;8.03;;
53389;SDS011;39288;42.970;1.524;2023-11-18T00:19:21;13.57;;;8.77;;
53389;SDS011;39288;42.970;1.524;2023-11-18T00:20:21;16.07;;;8.80;;
53389;SDS011;39288;42.970;1.524;2023-11-18T00:21:24;17.55;;;12.07;;
53389;SDS011;39288;42.970;1.524;2023-11-18T00:22:24;13.03;;;7.60;;
53389;SDS011;39288;42.970;1.524;2023-11-18T00:23:25;13.90;;;5.67;;
53389;SDS011;39288;42.970;1.524;2023-11-18T00:24:26;16.35;;;5.82;;
53389;SDS011;39288;42.970;1.524;2023-11-18T00:25:27;12.67;;;5.80;;
53389;SDS011;39288;42.970;1.524;2023-11-18T00:26:27;14.27;;;6.50;;
53389;SDS011;39288;42.970;1.524;2023-11-18T00:27:27;15.77;;;5.03;;
53389;SDS011;39288;42.970;1.524;2023-11-18T00:28:28;8.60;;;4.07;;
53389;SDS011;39288;42.970;1.524;2023-11-18T00:29:28;11.20;;;4.70;;
53389;SDS011;39288;42.970;1.524;2023-11-18T00:30:28;8.80;;;3.73;;
53389;SDS011;39288;42.970;1.524;2023-11-18T00:31:29;8.90;;;3.43;;
53389;SDS011;39288;42.970;1.524;2023-11-18T00:32:29;7.93;;;3.23;;
53389;SDS011;39288;42.970;1.524;2023-11-18T00:34:32;8.75;;;3.72;;
53389;SDS011;39288;42.970;1.524;2023-11-18T00:35:32;13.33;;;6.13;;
53389;SDS011;39288;42.970;1.524;2023-11-18T00:36:33;14.82;;;4.90;;
53389;SDS011;39288;42.970;1.524;2023-11-18T00:37:34;14.33;;;5.57;;
53389;SDS011;39288;42.970;1.524;2023-11-18T00:38:34;8.23;;;3.30;;
53389;SDS011;39288;42.970;1.524;2023-11-18T00:39:35;10.63;;;3.53;;
53389;SDS011;39288;42.970;1.524;2023-11-18T00:40:35;9.93;;;2.83;;
53389;SDS011;39288;42.970;1.524;2023-11-18T00:41:35;10.20;;;2.40;;
53389;SDS011;39288;42.970;1.524;2023-11-18T00:42:36;4.73;;;2.17;;
53389;SDS011;39288;42.970;1.524;2023-11-18T00:43:36;5.27;;;2.20;;
53389;SDS011;39288;42.970;1.524;2023-11-18T00:44:36;6.27;;;3.00;;
53389;SDS011;39288;42.970;1.524;2023-11-18T00:45:37;6.83;;;2.50;;
53389;SDS011;39288;42.970;1.524;2023-11-18T00:46:37;8.60;;;2.90;;
53389;SDS011;39288;42.970;1.524;2023-11-18T00:47:38;21.37;;;12.60;;
53389;SDS011;39288;42.970;1.524;2023-11-18T00:48:41;17.02;;;10.77;;
53389;SDS011;39288;42.970;1.524;2023-11-18T00:49:41;16.40;;;12.17;;
53389;SDS011;39288;42.970;1.524;2023-11-18T00:50:42;25.13;;;11.95;;
53389;SDS011;39288;42.970;1.524;2023-11-18T00:51:43;19.43;;;9.63;;
53389;SDS011;39288;42.970;1.524;2023-11-18T00:52:43;14.00;;;7.50;;
53389;SDS011;39288;42.970;1.524;2023-11-18T00:53:43;14.50;;;8.03;;
53389;SDS011;39288;42.970;1.524;2023-11-18T00:54:44;13.27;;;8.50;;
53389;SDS011;39288;42.970;1.524;2023-11-18T00:55:45;18.00;;;9.03;;
53389;SDS011;39288;42.970;1.524;2023-11-18T00:56:45;11.43;;;7.90;;
53389;SDS011;39288;42.970;1.524;2023-11-18T00:57:46;9.20;;;6.30;;
53389;SDS011;39288;42.970;1.524;2023-11-18T00:58:47;13.47;;;7.27;;
53389;SDS011;39288;42.970;1.524;2023-11-18T00:59:48;14.50;;;7.13;;
53389;SDS011;39288;42.970;1.524;2023-11-18T01:00:48;14.23;;;7.27;;
53389;SDS011;39288;42.970;1.524;2023-11-18T01:01:48;11.03;;;4.77;;
53389;SDS011;39288;42.970;1.524;2023-11-18T01:02:49;8.97;;;4.33;;
53389;SDS011;39288;42.970;1.524;2023-11-18T01:03:49;7.50;;;4.87;;
53389;SDS011;39288;42.970;1.524;2023-11-18T01:04:50;9.40;;;7.87;;
53389;SDS011;39288;42.970;1.524;2023-11-18T01:05:50;13.07;;;6.87;;
53389;SDS011;39288;42.970;1.524;2023-11-18T01:06:50;11.47;;;5.87;;
53389;SDS011;39288;42.970;1.524;2023-11-18T01:07:51;7.50;;;5.20;;
53389;SDS011;39288;42.970;1.524;2023-11-18T01:08:52;11.00;;;6.03;;
53389;SDS011;39288;42.970;1.524;2023-11-18T01:09:53;14.82;;;6.15;;
53389;SDS011;39288;42.970;1.524;2023-11-18T01:10:53;12.70;;;5.07;;
53389;SDS011;39288;42.970;1.524;2023-11-18T01:11:54;12.50;;;7.23;;
53389;SDS011;39288;42.970;1.524;2023-11-18T01:12:54;11.47;;;5.17;;
53389;SDS011;39288;42.970;1.524;2023-11-18T01:13:56;10.30;;;5.45;;
53389;SDS011;39288;42.970;1.524;2023-11-18T01:14:56;7.03;;;4.37;;
53389;SDS011;39288;42.970;1.524;2023-11-18T01:15:56;13.73;;;4.30;;
53389;SDS011;39288;42.970;1.524;2023-11-18T01:16:57;10.37;;;4.20;;
53389;SDS011;39288;42.970;1.524;2023-11-18T01:17:58;8.30;;;3.57;;
53389;SDS011;39288;42.970;1.524;2023-11-18T01:18:58;7.30;;;3.50;;
53389;SDS011;39288;42.970;1.524;2023-11-18T01:19:59;9.53;;;3.93;;
53389;SDS011;39288;42.970;1.524;2023-11-18T01:21:02;8.40;;;4.13;;
53389;SDS011;39288;42.970;1.524;2023-11-18T01:22:03;11.47;;;4.30;;
53389;SDS011;39288;42.970;1.524;2023-11-18T01:23:05;10.88;;;5.22;;
53389;SDS011;39288;42.970;1.524;2023-11-18T01:24:06;22.57;;;5.27;;
53389;SDS011;39288;42.970;1.524;2023-11-18T01:25:08;9.00;;;3.85;;
53389;SDS011;39288;42.970;1.524;2023-11-18T01:26:08;7.63;;;3.63;;
53389;SDS011;39288;42.970;1.524;2023-11-18T01:27:09;9.53;;;4.53;;
53389;SDS011;39288;42.970;1.524;2023-11-18T01:28:11;9.30;;;3.60;;
53389;SDS011;39288;42.970;1.524;2023-11-18T01:29:11;8.27;;;3.73;;
53389;SDS011;39288;42.970;1.524;2023-11-18T01:30:12;9.90;;;4.30;;
53389;SDS011;39288;42.970;1.524;2023-11-18T01:31:13;12.80;;;3.97;;
53389;SDS011;39288;42.970;1.524;2023-11-18T01:32:13;13.47;;;3.80;;
53389;SDS011;39288;42.970;1.524;2023-11-18T01:33:14;11.53;;;5.00;;
53389;SDS011;39288;42.970;1.524;2023-11-18T01:34:14;14.77;;;4.93;;
53389;SDS011;39288;42.970;1.524;2023-11-18T01:35:15;7.20;;;4.43;;
53389;SDS011;39288;42.970;1.524;2023-11-18T01:36:15;12.80;;;7.13;;
53389;SDS011;39288;42.970;1.524;2023-11-18T01:37:17;14.02;;;5.25;;
53389;SDS011;39288;42.970;1.524;2023-11-18T01:38:18;8.87;;;5.27;;
53389;SDS011;39288;42.970;1.524;2023-11-18T01:39:20;7.13;;;4.63;;
53389;SDS011;39288;42.970;1.524;2023-11-18T01:40:21;11.03;;;4.60;;
53389;SDS011;39288;42.970;1.524;2023-11-18T01:41:21;9.43;;;4.07;;
53389;SDS011;39288;42.970;1.524;2023-11-18T01:42:21;8.83;;;3.80;;
53389;SDS011;39288;42.970;1.524;2023-11-18T01:43:22;11.60;;;4.17;;
53389;SDS011;39288;42.970;1.524;2023-11-18T01:44:22;12.97;;;4.93;;
53389;SDS011;39288;42.970;1.524;2023-11-18T01:45:24;10.23;;;4.70;;
53389;SDS011;39288;42.970;1.524;2023-11-18T01:46:26;12.85;;;5.47;;
53389;SDS011;39288;42.970;1.524;2023-11-18T01:47:32;11.70;;;4.75;;
53389;SDS011;39288;42.970;1.524;2023-11-18T01:48:33;8.45;;;4.07;;
53389;SDS011;39288;42.970;1.524;2023-11-18T01:49:34;9.60;;;3.97;;
53389;SDS011;39288;42.970;1.524;2023-11-18T01:50:40;13.35;;;3.63;;
53389;SDS011;39288;42.970;1.524;2023-11-18T01:51:42;15.25;;;4.25;;
53389;SDS011;39288;42.970;1.524;2023-11-18T01:52:45;8.50;;;3.95;;
53389;SDS011;39288;42.970;1.524;2023-11-18T01:53:46;4.45;;;3.45;;
53389;SDS011;39288;42.970;1.524;2023-11-18T01:55:48;8.45;;;3.85;;
53389;SDS011;39288;42.970;1.524;2023-11-18T01:56:49;13.80;;;4.50;;
53389;SDS011;39288;42.970;1.524;2023-11-18T01:57:49;6.90;;;4.00;;
53389;SDS011;39288;42.970;1.524;2023-11-18T01:58:51;8.45;;;4.18;;
53389;SDS011;39288;42.970;1.524;2023-11-18T02:00:53;9.43;;;3.67;;
53389;SDS011;39288;42.970;1.524;2023-11-18T02:01:53;7.57;;;3.70;;
53389;SDS011;39288;42.970;1.524;2023-11-18T02:02:58;8.90;;;3.92;;
53389;SDS011;39288;42.970;1.524;2023-11-18T02:03:58;5.70;;;3.33;;
53389;SDS011;39288;42.970;1.524;2023-11-18T02:04:59;7.87;;;3.47;;
53389;SDS011;39288;42.970;1.524;2023-11-18T02:06:01;8.57;;;3.70;;
53389;SDS011;39288;42.970;1.524;2023-11-18T02:07:04;6.70;;;3.75;;
53389;SDS011;39288;42.970;1.524;2023-11-18T02:08:09;7.50;;;3.97;;
53389;SDS011;39288;42.970;1.524;2023-11-18T02:09:10;7.13;;;3.80;;
53389;SDS011;39288;42.970;1.524;2023-11-18T02:10:11;6.82;;;3.90;;
53389;SDS011;39288;42.970;1.524;2023-11-18T02:11:28;7.87;;;5.60;;
53389;SDS011;39288;42.970;1.524;2023-11-18T02:14:13;10.15;;;4.68;;
53389;SDS011;39288;42.970;1.524;2023-11-18T02:15:14;8.63;;;3.85;;
53389;SDS011;39288;42.970;1.524;2023-11-18T02:16:14;14.23;;;5.13;;
53389;SDS011;39288;42.970;1.524;2023-11-18T02:17:20;8.32;;;4.28;;
53389;SDS011;39288;42.970;1.524;2023-11-18T02:18:24;7.07;;;4.80;;
53389;SDS011;39288;42.970;1.524;2023-11-18T02:19:26;9.70;;;4.85;;
53389;SDS011;39288;42.970;1.524;2023-11-18T02:20:26;10.97;;;4.80;;
53389;SDS011;39288;42.970;1.524;2023-11-18T02:21:28;12.90;;;4.43;;
53389;SDS011;39288;42.970;1.524;2023-11-18T02:22:29;10.05;;;3.97;;
53389;SDS011;39288;42.970;1.524;2023-11-18T02:23:30;13.67;;;3.43;;
53389;SDS011;39288;42.970;1.524;2023-11-18T02:24:31;10.00;;;3.93;;
53389;SDS011;39288;42.970;1.524;2023-11-18T02:25:40;10.18;;;4.00;;
53389;SDS011;39288;42.970;1.524;2023-11-18T02:26:44;9.05;;;4.03;;
53389;SDS011;39288;42.970;1.524;2023-11-18T02:27:45;9.35;;;5.18;;
53389;SDS011;39288;42.970;1.524;2023-11-18T02:28:46;9.10;;;3.40;;
53389;SDS011;39288;42.970;1.524;2023-11-18T02:29:46;9.80;;;3.10;;
53389;SDS011;39288;42.970;1.524;2023-11-18T02:30:50;11.82;;;4.32;;
53389;SDS011;39288;42.970;1.524;2023-11-18T02:31:52;9.05;;;3.60;;
53389;SDS011;39288;42.970;1.524;2023-11-18T02:32:58;5.85;;;3.47;;
53389;SDS011;39288;42.970;1.524;2023-11-18T02:34:11;6.28;;;2.97;;
53389;SDS011;39288;42.970;1.524;2023-11-18T02:35:25;7.90;;;3.90;;
53389;SDS011;39288;42.970;1.524;2023-11-18T02:36:31;12.38;;;3.97;;
53389;SDS011;39288;42.970;1.524;2023-11-18T02:37:39;10.73;;;4.95;;
53389;SDS011;39288;42.970;1.524;2023-11-18T02:38:44;12.65;;;4.78;;
53389;SDS011;39288;42.970;1.524;2023-11-18T02:39:48;9.60;;;3.50;;
53389;SDS011;39288;42.970;1.524;2023-11-18T02:40:51;15.52;;;4.75;;
53389;SDS011;39288;42.970;1.524;2023-11-18T02:41:53;10.20;;;3.63;;
53389;SDS011;39288;42.970;1.524;2023-11-18T02:42:56;4.93;;;3.00;;
53389;SDS011;39288;42.970;1.524;2023-11-18T02:43:59;6.55;;;3.20;;
53389;SDS011;39288;42.970;1.524;2023-11-18T02:44:59;6.67;;;3.00;;
53389;SDS011;39288;42.970;1.524;2023-11-18T02:46:00;6.37;;;3.60;;
53389;SDS011;39288;42.970;1.524;2023-11-18T02:47:01;8.23;;;3.60;;
53389;SDS011;39288;42.970;1.524;2023-11-18T02:48:01;7.30;;;3.20;;
53389;SDS011;39288;42.970;1.524;2023-11-18T02:49:03;10.10;;;3.63;;
53389;SDS011;39288;42.970;1.524;2023-11-18T02:50:03;5.07;;;3.00;;
53389;SDS011;39288;42.970;1.524;2023-11-18T02:51:10;7.78;;;4.03;;
53389;SDS011;39288;42.970;1.524;2023-11-18T02:52:12;8.13;;;4.57;;
53389;SDS011;39288;42.970;1.524;2023-11-18T02:53:13;9.38;;;5.30;;
53389;SDS011;39288;42.970;1.524;2023-11-18T02:54:13;9.67;;;4.30;;
53389;SDS011;39288;42.970;1.524;2023-11-18T02:55:16;10.65;;;5.50;;
53389;SDS011;39288;42.970;1.524;2023-11-18T02:56:16;12.57;;;5.13;;
53389;SDS011;39288;42.970;1.524;2023-11-18T02:57:18;7.75;;;4.90;;
53389;SDS011;39288;42.970;1.524;2023-11-18T02:58:19;10.17;;;4.63;;
53389;SDS011;39288;42.970;1.524;2023-11-18T02:59:20;8.80;;;4.60;;
53389;SDS011;39288;42.970;1.524;2023-11-18T03:00:20;8.07;;;4.30;;
53389;SDS011;39288;42.970;1.524;2023-11-18T03:01:24;11.60;;;4.20;;
53389;SDS011;39288;42.970;1.524;2023-11-18T03:02:28;8.07;;;4.10;;
53389;SDS011;39288;42.970;1.524;2023-11-18T03:03:30;11.65;;;3.75;;
53389;SDS011;39288;42.970;1.524;2023-11-18T03:04:31;8.17;;;3.50;;
53389;SDS011;39288;42.970;1.524;2023-11-18T03:05:32;6.87;;;3.87;;
53389;SDS011;39288;42.970;1.524;2023-11-18T03:06:32;7.23;;;3.70;;
53389;SDS011;39288;42.970;1.524;2023-11-18T03:07:33;6.17;;;3.83;;
53389;SDS011;39288;42.970;1.524;2023-11-18T03:08:34;8.87;;;3.47;;
53389;SDS011;39288;42.970;1.524;2023-11-18T03:09:34;7.00;;;4.10;;
53389;SDS011;39288;42.970;1.524;2023-11-18T03:10:36;6.57;;;3.80;;
53389;SDS011;39288;42.970;1.524;2023-11-18T03:11:37;5.88;;;3.72;;
53389;SDS011;39288;42.970;1.524;2023-11-18T03:12:38;9.13;;;3.63;;
53389;SDS011;39288;42.970;1.524;2023-11-18T03:13:38;9.07;;;3.93;;
53389;SDS011;39288;42.970;1.524;2023-11-18T03:14:39;10.43;;;3.63;;
53389;SDS011;39288;42.970;1.524;2023-11-18T03:15:39;6.13;;;3.60;;
53389;SDS011;39288;42.970;1.524;2023-11-18T03:16:40;6.10;;;3.37;;
53389;SDS011;39288;42.970;1.524;2023-11-18T03:17:40;11.40;;;4.50;;
53389;SDS011;39288;42.970;1.524;2023-11-18T03:18:41;9.63;;;3.97;;
53389;SDS011;39288;42.970;1.524;2023-11-18T03:19:42;8.85;;;3.50;;
53389;SDS011;39288;42.970;1.524;2023-11-18T03:20:43;11.70;;;3.63;;
53389;SDS011;39288;42.970;1.524;2023-11-18T03:21:43;8.80;;;3.23;;
53389;SDS011;39288;42.970;1.524;2023-11-18T03:22:44;9.60;;;3.13;;
53389;SDS011;39288;42.970;1.524;2023-11-18T03:23:48;5.15;;;3.08;;
53389;SDS011;39288;42.970;1.524;2023-11-18T03:24:48;6.90;;;3.30;;
53389;SDS011;39288;42.970;1.524;2023-11-18T03:25:49;8.07;;;3.43;;
53389;SDS011;39288;42.970;1.524;2023-11-18T03:26:51;8.45;;;3.78;;
53389;SDS011;39288;42.970;1.524;2023-11-18T03:27:52;28.27;;;4.10;;
53389;SDS011;39288;42.970;1.524;2023-11-18T03:28:54;7.32;;;4.05;;
53389;SDS011;39288;42.970;1.524;2023-11-18T03:29:54;8.00;;;3.57;;
53389;SDS011;39288;42.970;1.524;2023-11-18T03:30:55;8.60;;;3.83;;
53389;SDS011;39288;42.970;1.524;2023-11-18T03:31:55;6.97;;;3.50;;
53389;SDS011;39288;42.970;1.524;2023-11-18T03:32:55;13.23;;;3.50;;
53389;SDS011;39288;42.970;1.524;2023-11-18T03:33:56;5.90;;;3.43;;
53389;SDS011;39288;42.970;1.524;2023-11-18T03:34:56;5.47;;;2.90;;
53389;SDS011;39288;42.970;1.524;2023-11-18T03:35:59;7.68;;;2.92;;
53389;SDS011;39288;42.970;1.524;2023-11-18T03:36:59;6.67;;;2.70;;
53389;SDS011;39288;42.970;1.524;2023-11-18T03:38:00;5.77;;;3.47;;
53389;SDS011;39288;42.970;1.524;2023-11-18T03:39:00;6.83;;;3.10;;
53389;SDS011;39288;42.970;1.524;2023-11-18T03:40:01;7.47;;;3.17;;
53389;SDS011;39288;42.970;1.524;2023-11-18T03:41:02;7.13;;;2.90;;
53389;SDS011;39288;42.970;1.524;2023-11-18T03:42:02;4.50;;;2.60;;
53389;SDS011;39288;42.970;1.524;2023-11-18T03:43:03;7.57;;;3.20;;
53389;SDS011;39288;42.970;1.524;2023-11-18T03:44:04;5.43;;;3.10;;
53389;SDS011;39288;42.970;1.524;2023-11-18T03:45:05;7.07;;;3.30;;
53389;SDS011;39288;42.970;1.524;2023-11-18T03:46:05;4.50;;;2.63;;
53389;SDS011;39288;42.970;1.524;2023-11-18T03:47:07;5.82;;;3.40;;
53389;SDS011;39288;42.970;1.524;2023-11-18T03:48:07;6.00;;;2.60;;
53389;SDS011;39288;42.970;1.524;2023-11-18T03:49:08;8.50;;;2.50;;
53389;SDS011;39288;42.970;1.524;2023-11-18T03:50:08;5.20;;;2.67;;
53389;SDS011;39288;42.970;1.524;2023-11-18T03:51:09;5.33;;;2.80;;
53389;SDS011;39288;42.970;1.524;2023-11-18T03:52:09;6.80;;;2.67;;
53389;SDS011;39288;42.970;1.524;2023-11-18T03:53:10;4.67;;;2.57;;
53389;SDS011;39288;42.970;1.524;2023-11-18T03:54:11;13.05;;;3.65;;
53389;SDS011;39288;42.970;1.524;2023-11-18T03:55:12;5.63;;;2.70;;
53389;SDS011;39288;42.970;1.524;2023-11-18T03:56:16;10.60;;;3.60;;
53389;SDS011;39288;42.970;1.524;2023-11-18T03:57:18;13.02;;;3.95;;
53389;SDS011;39288;42.970;1.524;2023-11-18T03:58:19;13.73;;;4.03;;
53389;SDS011;39288;42.970;1.524;2023-11-18T03:59:19;9.80;;;4.93;;
53389;SDS011;39288;42.970;1.524;2023-11-18T04:00:20;13.20;;;6.57;;
53389;SDS011;39288;42.970;1.524;2023-11-18T04:01:21;12.87;;;5.53;;
53389;SDS011;39288;42.970;1.524;2023-11-18T04:02:22;9.98;;;5.00;;
53389;SDS011;39288;42.970;1.524;2023-11-18T04:03:22;8.17;;;3.63;;
53389;SDS011;39288;42.970;1.524;2023-11-18T04:04:22;14.50;;;4.57;;
53389;SDS011;39288;42.970;1.524;2023-11-18T04:05:23;7.43;;;3.50;;
53389;SDS011;39288;42.970;1.524;2023-11-18T04:06:23;6.70;;;3.20;;
53389;SDS011;39288;42.970;1.524;2023-11-18T04:07:24;6.67;;;3.10;;
53389;SDS011;39288;42.970;1.524;2023-11-18T04:08:24;7.03;;;3.37;;
53389;SDS011;39288;42.970;1.524;2023-11-18T04:09:25;8.30;;;3.17;;
53389;SDS011;39288;42.970;1.524;2023-11-18T04:10:26;6.70;;;3.00;;
53389;SDS011;39288;42.970;1.524;2023-11-18T04:11:27;6.77;;;3.63;;
53389;SDS011;39288;42.970;1.524;2023-11-18T04:12:27;9.20;;;4.10;;
53389;SDS011;39288;42.970;1.524;2023-11-18T04:13:27;10.83;;;4.20;;
53389;SDS011;39288;42.970;1.524;2023-11-18T04:14:28;7.83;;;3.90;;
53389;SDS011;39288;42.970;1.524;2023-11-18T04:15:28;10.73;;;4.47;;
53389;SDS011;39288;42.970;1.524;2023-11-18T04:16:28;5.37;;;3.47;;
53389;SDS011;39288;42.970;1.524;2023-11-18T04:17:29;9.30;;;4.50;;
53389;SDS011;39288;42.970;1.524;2023-11-18T04:18:29;7.07;;;4.17;;
53389;SDS011;39288;42.970;1.524;2023-11-18T04:19:30;9.23;;;4.32;;
53389;SDS011;39288;42.970;1.524;2023-11-18T04:20:31;7.33;;;3.70;;
53389;SDS011;39288;42.970;1.524;2023-11-18T04:21:32;9.02;;;4.72;;
53389;SDS011;39288;42.970;1.524;2023-11-18T04:22:33;11.17;;;4.33;;
53389;SDS011;39288;42.970;1.524;2023-11-18T04:23:33;7.67;;;3.60;;
53389;SDS011;39288;42.970;1.524;2023-11-18T04:24:35;5.75;;;4.28;;
53389;SDS011;39288;42.970;1.524;2023-11-18T04:25:35;7.40;;;4.53;;
53389;SDS011;39288;42.970;1.524;2023-11-18T04:26:35;11.70;;;5.50;;
53389;SDS011;39288;42.970;1.524;2023-11-18T04:27:37;7.40;;;4.63;;
53389;SDS011;39288;42.970;1.524;2023-11-18T04:28:38;19.38;;;3.90;;
53389;SDS011;39288;42.970;1.524;2023-11-18T04:29:38;9.20;;;3.47;;
53389;SDS011;39288;42.970;1.524;2023-11-18T04:30:40;10.00;;;3.65;;
53389;SDS011;39288;42.970;1.524;2023-11-18T04:31:40;7.03;;;3.90;;
53389;SDS011;39288;42.970;1.524;2023-11-18T04:32:40;12.23;;;4.60;;
53389;SDS011;39288;42.970;1.524;2023-11-18T04:33:42;20.60;;;9.85;;
53389;SDS011;39288;42.970;1.524;2023-11-18T04:34:42;31.57;;;14.83;;
53389;SDS011;39288;42.970;1.524;2023-11-18T04:35:45;22.40;;;12.17;;
53389;SDS011;39288;42.970;1.524;2023-11-18T04:36:46;13.82;;;7.38;;
53389;SDS011;39288;42.970;1.524;2023-11-18T04:37:46;13.17;;;6.10;;
53389;SDS011;39288;42.970;1.524;2023-11-18T04:38:46;14.20;;;6.93;;
53389;SDS011;39288;42.970;1.524;2023-11-18T04:39:47;27.53;;;12.53;;
53389;SDS011;39288;42.970;1.524;2023-11-18T04:40:47;29.50;;;16.63;;
53389;SDS011;39288;42.970;1.524;2023-11-18T04:41:47;21.00;;;10.93;;
53389;SDS011;39288;42.970;1.524;2023-11-18T04:42:48;12.17;;;6.60;;
53389;SDS011;39288;42.970;1.524;2023-11-18T04:43:48;12.87;;;4.80;;
53389;SDS011;39288;42.970;1.524;2023-11-18T04:44:49;8.37;;;3.93;;
53389;SDS011;39288;42.970;1.524;2023-11-18T04:45:50;4.77;;;2.73;;
53389;SDS011;39288;42.970;1.524;2023-11-18T04:46:50;16.90;;;6.93;;
53389;SDS011;39288;42.970;1.524;2023-11-18T04:47:51;15.33;;;5.97;;
53389;SDS011;39288;42.970;1.524;2023-11-18T04:48:51;12.63;;;5.63;;
53389;SDS011;39288;42.970;1.524;2023-11-18T04:49:54;10.85;;;5.13;;
53389;SDS011;39288;42.970;1.524;2023-11-18T04:50:54;8.47;;;4.23;;
53389;SDS011;39288;42.970;1.524;2023-11-18T04:51:55;11.10;;;4.53;;
53389;SDS011;39288;42.970;1.524;2023-11-18T04:52:58;8.50;;;4.50;;
53389;SDS011;39288;42.970;1.524;2023-11-18T04:53:59;13.60;;;5.10;;
53389;SDS011;39288;42.970;1.524;2023-11-18T04:54:59;12.27;;;6.97;;
53389;SDS011;39288;42.970;1.524;2023-11-18T04:56:00;14.17;;;6.03;;
53389;SDS011;39288;42.970;1.524;2023-11-18T04:57:00;7.83;;;4.20;;
53389;SDS011;39288;42.970;1.524;2023-11-18T04:58:01;7.23;;;3.57;;
53389;SDS011;39288;42.970;1.524;2023-11-18T04:59:05;6.88;;;3.28;;
53389;SDS011;39288;42.970;1.524;2023-11-18T05:00:06;8.05;;;2.70;;
53389;SDS011;39288;42.970;1.524;2023-11-18T05:01:10;6.78;;;2.75;;
53389;SDS011;39288;42.970;1.524;2023-11-18T05:02:12;8.32;;;3.05;;
53389;SDS011;39288;42.970;1.524;2023-11-18T05:03:13;5.80;;;2.60;;
53389;SDS011;39288;42.970;1.524;2023-11-18T05:04:13;7.47;;;2.93;;
53389;SDS011;39288;42.970;1.524;2023-11-18T05:05:14;4.83;;;2.40;;
53389;SDS011;39288;42.970;1.524;2023-11-18T05:06:15;7.25;;;2.60;;
53389;SDS011;39288;42.970;1.524;2023-11-18T05:07:16;3.80;;;2.43;;
53389;SDS011;39288;42.970;1.524;2023-11-18T05:08:18;4.80;;;2.30;;
53389;SDS011;39288;42.970;1.524;2023-11-18T05:09:19;6.13;;;3.17;;
53389;SDS011;39288;42.970;1.524;2023-11-18T05:10:20;8.75;;;3.03;;
53389;SDS011;39288;42.970;1.524;2023-11-18T05:11:21;7.57;;;4.10;;
53389;SDS011;39288;42.970;1.524;2023-11-18T05:12:21;5.03;;;3.20;;
53389;SDS011;39288;42.970;1.524;2023-11-18T05:13:22;8.87;;;3.00;;
53389;SDS011;39288;42.970;1.524;2023-11-18T05:14:22;8.77;;;3.10;;
53389;SDS011;39288;42.970;1.524;2023-11-18T05:15:22;4.80;;;2.57;;
53389;SDS011;39288;42.970;1.524;2023-11-18T05:16:26;5.20;;;2.33;;
53389;SDS011;39288;42.970;1.524;2023-11-18T05:17:26;12.10;;;4.33;;
53389;SDS011;39288;42.970;1.524;2023-11-18T05:18:27;14.43;;;3.77;;
53389;SDS011;39288;42.970;1.524;2023-11-18T05:19:29;7.57;;;3.08;;
53389;SDS011;39288;42.970;1.524;2023-11-18T05:20:30;8.57;;;3.77;;
53389;SDS011;39288;42.970;1.524;2023-11-18T05:21:30;11.47;;;4.87;;
53389;SDS011;39288;42.970;1.524;2023-11-18T05:22:30;8.50;;;4.33;;
53389;SDS011;39288;42.970;1.524;2023-11-18T05:23:31;8.93;;;3.83;;
53389;SDS011;39288;42.970;1.524;2023-11-18T05:24:31;9.13;;;3.60;;
53389;SDS011;39288;42.970;1.524;2023-11-18T05:25:32;8.07;;;3.10;;
53389;SDS011;39288;42.970;1.524;2023-11-18T05:26:33;7.83;;;3.67;;
53389;SDS011;39288;42.970;1.524;2023-11-18T05:28:35;7.55;;;3.25;;
53389;SDS011;39288;42.970;1.524;2023-11-18T05:29:35;6.17;;;2.70;;
53389;SDS011;39288;42.970;1.524;2023-11-18T05:30:37;9.07;;;3.40;;
53389;SDS011;39288;42.970;1.524;2023-11-18T05:31:38;12.73;;;3.80;;
53389;SDS011;39288;42.970;1.524;2023-11-18T05:32:39;11.60;;;3.50;;
53389;SDS011;39288;42.970;1.524;2023-11-18T05:33:40;7.93;;;3.13;;
53389;SDS011;39288;42.970;1.524;2023-11-18T05:34:40;11.03;;;3.13;;
53389;SDS011;39288;42.970;1.524;2023-11-18T05:35:42;7.85;;;2.85;;
53389;SDS011;39288;42.970;1.524;2023-11-18T05:36:48;6.63;;;2.95;;
53389;SDS011;39288;42.970;1.524;2023-11-18T05:37:54;6.70;;;3.63;;
53389;SDS011;39288;42.970;1.524;2023-11-18T05:38:55;10.77;;;3.40;;
53389;SDS011;39288;42.970;1.524;2023-11-18T05:39:55;8.93;;;4.27;;
53389;SDS011;39288;42.970;1.524;2023-11-18T05:41:06;15.40;;;3.10;;
53389;SDS011;39288;42.970;1.524;2023-11-18T05:42:16;6.80;;;2.72;;
53389;SDS011;39288;42.970;1.524;2023-11-18T05:43:16;7.67;;;2.40;;
53389;SDS011;39288;42.970;1.524;2023-11-18T05:44:19;5.55;;;3.10;;
53389;SDS011;39288;42.970;1.524;2023-11-18T05:46:27;6.32;;;2.65;;
53389;SDS011;39288;42.970;1.524;2023-11-18T05:48:30;9.40;;;2.60;;
53389;SDS011;39288;42.970;1.524;2023-11-18T05:49:32;4.18;;;2.38;;
53389;SDS011;39288;42.970;1.524;2023-11-18T05:50:33;7.13;;;2.35;;
53389;SDS011;39288;42.970;1.524;2023-11-18T05:51:34;7.07;;;2.20;;
53389;SDS011;39288;42.970;1.524;2023-11-18T05:52:35;4.80;;;1.83;;
53389;SDS011;39288;42.970;1.524;2023-11-18T05:53:42;7.03;;;2.10;;
53389;SDS011;39288;42.970;1.524;2023-11-18T05:54:45;8.50;;;2.15;;
53389;SDS011;39288;42.970;1.524;2023-11-18T05:55:47;9.68;;;2.28;;
53389;SDS011;39288;42.970;1.524;2023-11-18T05:56:48;3.93;;;1.73;;
53389;SDS011;39288;42.970;1.524;2023-11-18T05:57:48;3.97;;;1.80;;
53389;SDS011;39288;42.970;1.524;2023-11-18T05:58:48;4.90;;;1.93;;
53389;SDS011;39288;42.970;1.524;2023-11-18T05:59:49;5.17;;;2.13;;
53389;SDS011;39288;42.970;1.524;2023-11-18T06:00:49;3.10;;;2.07;;
53389;SDS011;39288;42.970;1.524;2023-11-18T06:01:49;6.13;;;2.40;;
53389;SDS011;39288;42.970;1.524;2023-11-18T06:02:53;4.00;;;1.60;;
53389;SDS011;39288;42.970;1.524;2023-11-18T06:03:53;3.80;;;1.98;;
53389;SDS011;39288;42.970;1.524;2023-11-18T06:04:54;6.67;;;2.23;;
53389;SDS011;39288;42.970;1.524;2023-11-18T06:05:54;9.30;;;2.23;;
53389;SDS011;39288;42.970;1.524;2023-11-18T06:06:56;11.63;;;2.22;;
53389;SDS011;39288;42.970;1.524;2023-11-18T06:07:56;8.13;;;1.60;;
53389;SDS011;39288;42.970;1.524;2023-11-18T06:08:59;4.45;;;1.85;;
53389;SDS011;39288;42.970;1.524;2023-11-18T06:10:04;3.80;;;1.45;;
53389;SDS011;39288;42.970;1.524;2023-11-18T06:11:07;10.93;;;2.00;;
53389;SDS011;39288;42.970;1.524;2023-11-18T06:12:14;4.43;;;1.40;;
53389;SDS011;39288;42.970;1.524;2023-11-18T06:13:17;6.38;;;1.70;;
53389;SDS011;39288;42.970;1.524;2023-11-18T06:14:18;6.27;;;1.33;;
53389;SDS011;39288;42.970;1.524;2023-11-18T06:15:18;5.53;;;1.57;;